Flight Track Log - Related Links

Times and Time Zones

All times are in EDT time to prevent confusion due to time zone crossing. See the N90Z flight status page for this flight to view local times or setup timezone preferences in your user account.

Time Position Orientation Groundspeed Altitude Reporting Facility
EDT Latitude Longitude Course Direction KTS MPH feet Rate Location/Type
Sun 03:57:48 PM 34.7219 -92.2394 261° West 123 142 800  Level Memphis Center
Sun 03:58:49 PM 34.7150 -92.2925 261° West 186 214 2,600 1,983 Climbing Memphis Center
Sun 03:59:49 PM 34.7667 -92.3164 339° North 217 250 4,800 2,066 Climbing Memphis Center
Sun 04:01:20 PM 34.8367 -92.2547 36° Northeast 216 249 7,800 1,895 Climbing Memphis Center
Sun 04:02:21 PM 34.8894 -92.2128 33° Northeast 216 249 9,600 1,850 Climbing Memphis Center
Sun 04:03:20 PM 34.9461 -92.1736 30° Northeast 221 254 11,500 1,866 Climbing Memphis Center
Sun 04:04:20 PM 35.0092 -92.1444 21° North 226 260 13,300 1,750 Climbing Memphis Center
Sun 04:05:20 PM 35.0742 -92.1231 15° North 232 267 15,000 1,650 Climbing Memphis Center
Sun 04:06:20 PM 35.1372 -92.0964 19° North 232 267 16,600 1,550 Climbing Memphis Center
Sun 04:07:20 PM 35.2022 -92.0697 19° North 238 274 18,100 1,350 Climbing Memphis Center
Sun 04:08:20 PM 35.2736 -92.0433 17° North 245 282 19,300 1,200 Climbing Memphis Center
Sun 04:09:20 PM 35.3406 -92.0142 20° North 250 288 20,500 1,150 Climbing Memphis Center
Sun 04:10:20 PM 35.4119 -91.9875 17° North 255 293 21,600 1,150 Climbing Memphis Center
Sun 04:11:20 PM 35.4831 -91.9583 18° North 261 300 22,800 1,100 Climbing Memphis Center
Sun 04:12:20 PM 35.5544 -91.9317 17° North 266 306 23,800 950 Climbing Memphis Center
Sun 04:13:20 PM 35.6258 -91.8947 23° Northeast 266 306 24,700 900 Climbing Memphis Center
Sun 04:14:20 PM 35.6892 -91.8369 37° Northeast 266 306 25,600 750 Climbing Memphis Center
Sun 04:15:20 PM 35.7525 -91.7717 40° Northeast 278 320 26,200 700 Climbing Memphis Center
Sun 04:16:20 PM 35.8156 -91.7086 39° Northeast 288 331 27,000 900 Climbing Memphis Center
Sun 04:17:20 PM 35.8808 -91.6533 34° Northeast 288 331 28,000 850 Climbing Memphis Center
Sun 04:18:20 PM 35.9400 -91.5928 40° Northeast 277 319 28,700 700 Climbing Memphis Center
Sun 04:19:20 PM 35.9989 -91.5347 39° Northeast 272 313 29,400 650 Climbing Memphis Center
Sun 04:20:20 PM 36.0556 -91.4714 42° Northeast 272 313 30,000 550 Climbing Memphis Center
Sun 04:21:20 PM 36.1208 -91.4131 36° Northeast 282 325 30,500 550 Climbing Memphis Center
Sun 04:22:20 PM 36.1817 -91.3547 38° Northeast 282 325 31,100 450 Climbing Memphis Center
Sun 04:23:20 PM 36.2344 -91.2858 46° Northeast 282 325 31,400 300 Climbing Memphis Center
Sun 04:24:20 PM 36.2869 -91.2144 48° Northeast 282 325 31,700 350 Climbing Memphis Center
Sun 04:25:20 PM 36.3397 -91.1403 49° Northeast 282 325 32,100 200 Climbing Memphis Center
Sun 04:26:20 PM 36.3611 -91.0347 76° East 288 331 32,100  Level Memphis Center
Sun 04:27:20 PM 36.3783 -90.9239 79° East 299 344 32,100  Level Memphis Center
Sun 04:28:20 PM 36.3683 -90.8106 96° East 316 364 32,100 500 Level Memphis Center
Sun 04:29:20 PM 36.3853 -90.7025 79° East 316 364 33,100 450 Climbing Memphis Center
Sun 04:30:20 PM 36.4231 -90.6356 55° Northeast 302 348 33,000 -50 Descending Memphis Center
Sun 04:31:20 PM 36.4858 -90.5481 48° Northeast 291 335 33,000  Level Memphis Center
Sun 04:32:20 PM 36.5506 -90.4681 45° Northeast 308 354 33,000  Level Memphis Center
Sun 04:33:20 PM 36.6317 -90.4139 28° Northeast 321 369 33,000  Level Memphis Center
Sun 04:34:20 PM 36.7089 -90.3544 32° Northeast 321 369 33,000 526 Level Memphis Center
Sun 04:36:34 PM 36.8653 -90.3272 North 271 312 34,700 704 Climbing Kansas City Center
Sun 04:37:36 PM 36.9736 -90.2900 15° North 284 327 35,300 484 Climbing Kansas City Center
Sun 04:38:38 PM 37.0506 -90.2667 14° North 285 328 35,700 339 Climbing Kansas City Center
Sun 04:39:40 PM 37.1286 -90.2406 15° North 287 330 36,000 387 Climbing Kansas City Center
Sun 04:40:42 PM 37.2089 -90.2181 13° North 292 336 36,500 387 Climbing Kansas City Center
Sun 04:41:44 PM 37.2872 -90.1964 12° North 290 334 36,800 242 Climbing Kansas City Center
Sun 04:42:46 PM 37.3775 -90.1656 15° North 296 341 37,000 97 Climbing Kansas City Center
Sun 04:43:48 PM 37.4608 -90.1400 14° North 304 350 37,000  Level Kansas City Center
Sun 04:44:50 PM 37.5467 -90.1181 11° North 312 359 37,000  Level Kansas City Center
Sun 04:45:52 PM 37.6358 -90.0964 11° North 322 371 37,000 290 Level Kansas City Center
Sun 04:46:54 PM 37.7256 -90.0650 15° North 330 380 37,600 484 Climbing Kansas City Center
Sun 04:47:56 PM 37.8106 -90.0386 14° North 321 369 38,000 194 Climbing Kansas City Center
Sun 04:48:58 PM 37.9125 -90.0094 13° North 320 368 38,000  Level Kansas City Center
Sun 04:50:00 PM 38.0083 -89.9753 16° North 330 380 38,000  Level Kansas City Center
Sun 04:51:02 PM 38.0989 -89.9481 13° North 334 384 38,000  Level Kansas City Center
Sun 04:52:04 PM 38.1825 -89.9200 15° North 336 387 38,000  Level Kansas City Center
Sun 04:53:06 PM 38.2756 -89.8953 12° North 341 392 38,000  Level Kansas City Center
Sun 04:54:08 PM 38.3867 -89.8592 14° North 344 396 38,000  Level Kansas City Center
Sun 04:55:10 PM 38.4811 -89.8317 13° North 350 403 38,000  Level Kansas City Center
Sun 04:56:13 PM 38.5758 -89.8042 13° North 351 404 38,000  Level Kansas City Center
Sun 04:57:15 PM 38.6708 -89.7728 14° North 355 409 38,000  Level Kansas City Center
Sun 04:58:17 PM 38.7675 -89.7439 13° North 358 412 38,000  Level Kansas City Center
Sun 04:59:19 PM 38.8822 -89.7086 13° North 356 410 38,000  Level Kansas City Center
Sun 05:00:21 PM 38.9844 -89.6731 15° North 359 413 38,000  Level Kansas City Center
Sun 05:01:23 PM 39.0808 -89.6439 13° North 357 411 38,000  Level Kansas City Center
Sun 05:02:25 PM 39.1717 -89.6150 14° North 359 413 38,000  Level Kansas City Center
Sun 05:03:27 PM 39.2689 -89.5819 15° North 362 417 38,000  Level Kansas City Center
Sun 05:04:29 PM 39.3650 -89.5525 13° North 358 412 38,000  Level Kansas City Center
Sun 05:05:31 PM 39.4803 -89.5175 13° North 355 409 38,000  Level Kansas City Center
Sun 05:06:33 PM 39.5772 -89.4861 14° North 357 411 38,000  Level Kansas City Center
Sun 05:07:35 PM 39.6736 -89.4550 14° North 358 412 38,000  Level Kansas City Center
Sun 05:08:37 PM 39.7692 -89.4239 14° North 357 411 38,000  Level Kansas City Center
Sun 05:09:39 PM 39.8664 -89.3917 14° North 358 412 38,000  Level Kansas City Center
Sun 05:10:41 PM 39.9828 -89.3539 14° North 359 413 38,000  Level Kansas City Center
Sun 05:11:43 PM 40.0792 -89.3231 14° North 359 413 38,000  Level Kansas City Center
Sun 05:12:45 PM 40.1750 -89.2897 15° North 358 412 38,000  Level Kansas City Center
Sun 05:13:47 PM 40.2717 -89.2597 13° North 358 412 38,000  Level Kansas City Center
Sun 05:14:49 PM 40.3669 -89.2283 14° North 357 411 38,000  Level Kansas City Center
Sun 05:15:51 PM 40.4625 -89.1986 13° North 355 409 38,000  Level Kansas City Center
Sun 05:16:53 PM 40.5761 -89.1600 14° North 354 407 38,000  Level Kansas City Center
Sun 05:17:55 PM 40.6708 -89.1258 15° North 355 409 38,000 -45 Level Kansas City Center
Sun 05:19:05 PM 40.7842 -89.0911 13° North 351 404 37,900 -45 Descending Chicago Center
Sun 05:20:07 PM 40.8800 -89.0569 15° North 356 410 37,900  Level Chicago Center
Sun 05:21:10 PM 40.9764 -89.0275 13° North 356 410 37,900 48 Level Chicago Center
Sun 05:22:12 PM 41.0836 -88.9931 14° North 355 409 38,000 48 Climbing Chicago Center
Sun 05:23:14 PM 41.1806 -88.9575 15° North 358 412 38,000  Level Chicago Center
Sun 05:24:16 PM 41.2769 -88.9247 14° North 358 412 38,000  Level Chicago Center
Sun 05:25:18 PM 41.3717 -88.8911 15° North 354 407 38,000  Level Chicago Center
Sun 05:26:20 PM 41.4694 -88.8581 14° North 360 414 38,000  Level Chicago Center
Sun 05:27:22 PM 41.5861 -88.8164 15° North 362 417 38,000 -48 Level Chicago Center
Sun 05:28:24 PM 41.6817 -88.7869 13° North 354 407 37,900  Descending Chicago Center
Sun 05:29:26 PM 41.7750 -88.7519 16° North 350 403 38,000 48 Climbing Chicago Center
Sun 05:30:28 PM 41.8692 -88.7231 13° North 347 399 38,000  Level Chicago Center
Sun 05:31:30 PM 41.9625 -88.6881 16° North 347 399 38,000  Level Chicago Center
Sun 05:32:32 PM 42.0725 -88.6697 North 334 384 38,000  Level Chicago Center
Sun 05:33:34 PM 42.1586 -88.6847 353° North 316 364 38,000  Level Chicago Center
Sun 05:34:37 PM 42.2408 -88.7161 344° North 307 353 38,000 -48 Level Chicago Center
Sun 05:35:39 PM 42.3267 -88.7350 351° North 314 361 37,900  Descending Chicago Center
Sun 05:36:41 PM 42.4042 -88.7814 336° Northwest 308 354 38,000 48 Climbing Chicago Center
Sun 05:37:43 PM 42.5006 -88.8219 343° North 311 358 38,000  Level Chicago Center
Sun 05:38:45 PM 42.5806 -88.8631 339° North 307 353 38,000  Level Chicago Center
Sun 05:39:47 PM 42.6644 -88.8983 343° North 313 360 38,000 -242 Level Chicago Center
Sun 05:40:49 PM 42.7597 -88.8756 10° North 349 402 37,500 -1,065 Descending Chicago Center
Sun 05:41:51 PM 42.8600 -88.8675 North 361 415 35,800 -1,984 Descending Chicago Center
Sun 05:42:53 PM 42.9753 -88.8736 358° North 355 409 33,400 -2,226 Descending Chicago Center
Sun 05:43:55 PM 43.0717 -88.8844 355° North 349 402 31,200 -2,226 Descending Chicago Center
Sun 05:44:57 PM 43.1644 -88.8967 355° North 337 388 28,800 -2,323 Descending Chicago Center
Sun 05:45:59 PM 43.2581 -88.8817 North 346 398 26,400 -2,226 Descending Chicago Center
Sun 05:47:01 PM 43.3431 -88.8169 29° Northeast 345 397 24,200 -1,984 Descending Chicago Center
Sun 05:48:03 PM 43.4317 -88.7694 21° North 339 390 22,300 -1,548 Descending Chicago Center
Sun 05:49:05 PM 43.5203 -88.7225 21° North 338 389 21,000 -629 Descending Chicago Center
Sun 05:50:07 PM 43.5994 -88.6794 21° North 307 353 21,000  Level Chicago Center
Sun 05:51:09 PM 43.6847 -88.6178 28° Northeast 295 339 21,000 -823 Level Chicago Center
Sun 05:52:11 PM 43.7631 -88.5686 24° Northeast 302 348 19,300 -2,032 Descending Chicago Center
Sun 05:53:13 PM 43.8489 -88.5211 22° Northeast 326 375 16,800 -2,419 Descending Chicago Center
Sun 05:54:15 PM 43.9283 -88.4725 24° Northeast 315 362 14,300 -2,226 Descending Chicago Center
Sun 05:55:17 PM 44.0044 -88.4342 20° North 294 338 12,200 -2,304 Descending Chicago Center
Sun 05:56:20 PM 44.0803 -88.3822 26° Northeast 265 305 9,500 -2,592 Descending Chicago Center
Sun 05:57:22 PM 44.1475 -88.3453 22° Northeast 260 299 6,800 -2,565 Descending Chicago Center
Sun 05:58:24 PM 44.2189 -88.3244 12° North 260 299 4,200 -1,355 Descending Minneapolis Center
Sun 05:59:26 PM 44.2817 -88.3300 356° North 234 269 4,000 -435 Descending Minneapolis Center
Sun 06:00:28 PM 44.3367 -88.3311 359° North 206 237 3,300 -726 Descending Minneapolis Center
Sun 06:01:30 PM 44.3894 -88.3150 12° North 217 250 2,500 -486 Descending Minneapolis Center
Sun 06:02:56 PM 44.4439 -88.2328 47° Northeast 185 213 2,100 -483 Descending Minneapolis Center
Sun 06:03:59 PM 44.4678 -88.1728 61° Northeast 154 177 1,300 -762 Descending Minneapolis Center
Sun 06:06:00 PM 44.4846 -88.1297 25° Northeast  Level Estimated

Login

Don't have an account? Register now (free) for customized features, flight alerts, and more!